createdAt,value
2022-08-30T00:02:05.603Z,15.40
2022-08-30T00:04:32.476Z,15.08
2022-08-30T00:06:59.926Z,15.29
2022-08-30T00:09:26.621Z,15.27
2022-08-30T00:11:53.335Z,15.17
2022-08-30T00:14:20.574Z,15.18
2022-08-30T00:16:47.293Z,15.19
2022-08-30T00:19:14.533Z,14.98
2022-08-30T00:21:41.404Z,15.32
2022-08-30T00:24:08.147Z,15.47
2022-08-30T00:26:34.981Z,15.30
2022-08-30T00:29:01.733Z,15.12
2022-08-30T00:31:28.524Z,14.98
2022-08-30T00:33:55.290Z,15.37
2022-08-30T00:36:22.004Z,15.10
2022-08-30T00:38:48.742Z,15.38
2022-08-30T00:41:15.485Z,15.46
2022-08-30T00:43:42.215Z,15.54
2022-08-30T00:46:10.482Z,15.57
2022-08-30T00:48:41.039Z,15.49
2022-08-30T00:51:11.540Z,15.29
2022-08-30T00:53:42.725Z,15.39
2022-08-30T00:56:11.000Z,15.38
2022-08-30T00:58:42.085Z,15.56
2022-08-30T01:01:09.806Z,15.50
2022-08-30T01:03:37.228Z,15.25
2022-08-30T01:06:07.076Z,15.14
2022-08-30T01:08:34.833Z,15.16
2022-08-30T01:11:03.795Z,15.26
2022-08-30T01:13:32.477Z,15.06
2022-08-30T01:16:00.240Z,15.16
2022-08-30T01:18:28.711Z,15.17
2022-08-30T01:21:07.492Z,15.49
2022-08-30T01:23:42.207Z,15.32
2022-08-30T01:26:10.473Z,15.43
2022-08-30T01:28:39.759Z,15.28
2022-08-30T01:31:06.597Z,15.08
2022-08-30T01:33:33.790Z,15.08
2022-08-30T01:36:03.857Z,15.08
2022-08-30T01:38:42.045Z,15.28
2022-08-30T01:41:10.990Z,15.31
2022-08-30T01:43:38.618Z,15.29
2022-08-30T01:46:05.599Z,14.93
2022-08-30T01:48:32.884Z,15.18
2022-08-30T01:51:02.464Z,14.86
2022-08-30T01:53:29.679Z,14.84
2022-08-30T01:55:56.506Z,14.99
2022-08-30T01:58:23.492Z,15.05
2022-08-30T02:00:50.457Z,15.04
2022-08-30T02:03:17.385Z,15.13
2022-08-30T02:05:44.264Z,15.24
2022-08-30T02:08:11.056Z,14.98
2022-08-30T02:10:37.749Z,14.89
2022-08-30T02:13:04.599Z,14.95
2022-08-30T02:15:41.386Z,15.01
2022-08-30T02:18:10.836Z,15.09
2022-08-30T02:20:39.818Z,15.16
2022-08-30T02:23:06.678Z,14.86
2022-08-30T02:25:33.404Z,14.70
2022-08-30T02:28:00.130Z,15.13
2022-08-30T02:30:26.905Z,14.84
2022-08-30T02:32:53.671Z,14.73
2022-08-30T02:35:20.481Z,14.90
2022-08-30T02:37:47.247Z,14.85
2022-08-30T02:40:14.189Z,14.94
2022-08-30T02:42:41.899Z,14.63
2022-08-30T02:45:09.129Z,14.55
2022-08-30T02:47:36.132Z,14.83
2022-08-30T02:50:05.266Z,14.75
2022-08-30T02:52:32.064Z,14.74
2022-08-30T02:54:59.855Z,14.90
2022-08-30T02:57:26.722Z,14.70
2022-08-30T02:59:53.663Z,14.66
2022-08-30T03:02:22.310Z,14.81
2022-08-30T03:04:49.438Z,14.78
2022-08-30T03:07:17.435Z,14.85
2022-08-30T03:09:44.519Z,14.88
2022-08-30T03:12:12.354Z,14.76
2022-08-30T03:14:39.867Z,15.03
2022-08-30T03:17:12.721Z,15.08
2022-08-30T03:19:43.089Z,14.90
2022-08-30T03:22:10.693Z,14.68
2022-08-30T03:24:37.643Z,14.94
2022-08-30T03:27:04.498Z,14.74
2022-08-30T03:29:31.207Z,14.92
2022-08-30T03:31:58.271Z,14.86
2022-08-30T03:34:26.632Z,14.94
2022-08-30T03:36:54.947Z,14.91
2022-08-30T03:39:23.706Z,14.85
2022-08-30T03:41:50.767Z,14.79
2022-08-30T03:44:18.745Z,14.59
2022-08-30T03:46:45.954Z,14.76
2022-08-30T03:49:13.095Z,14.82
2022-08-30T03:51:40.100Z,14.63
2022-08-30T03:54:06.812Z,14.49
2022-08-30T03:56:33.498Z,14.42
2022-08-30T03:59:00.249Z,14.47
2022-08-30T04:01:27.022Z,14.48
2022-08-30T04:03:54.013Z,14.21
2022-08-30T04:06:20.775Z,14.42
2022-08-30T04:08:48.045Z,14.41
2022-08-30T04:11:16.519Z,14.33
2022-08-30T04:13:44.466Z,14.73
2022-08-30T04:16:11.385Z,14.34
2022-08-30T04:18:38.850Z,14.29
2022-08-30T04:21:05.989Z,14.47
2022-08-30T04:23:32.875Z,14.45
2022-08-30T04:25:59.704Z,14.10
2022-08-30T04:28:26.465Z,14.21
2022-08-30T04:30:53.215Z,14.05
2022-08-30T04:33:20.032Z,14.27
2022-08-30T04:35:49.963Z,14.46
2022-08-30T04:38:18.314Z,14.44
2022-08-30T04:40:49.239Z,14.22
2022-08-30T04:43:16.474Z,14.34
2022-08-30T04:45:43.548Z,14.34
2022-08-30T04:48:10.544Z,14.30
2022-08-30T04:50:37.323Z,14.26
2022-08-30T04:53:04.089Z,14.37
2022-08-30T04:55:30.890Z,14.24
2022-08-30T04:57:57.649Z,14.30
2022-08-30T05:00:24.383Z,14.44
2022-08-30T05:02:51.128Z,14.68
2022-08-30T05:05:36.965Z,14.40
2022-08-30T05:08:04.282Z,14.54
2022-08-30T05:10:31.151Z,14.20
2022-08-30T05:12:57.998Z,14.36
2022-08-30T05:15:24.743Z,14.25
2022-08-30T05:17:51.839Z,14.37
2022-08-30T05:20:18.548Z,14.12
2022-08-30T05:22:53.710Z,14.40
2022-08-30T05:25:27.185Z,14.43
2022-08-30T05:27:54.419Z,14.03
2022-08-30T05:30:21.696Z,14.25
2022-08-30T05:32:48.566Z,14.20
2022-08-30T05:35:16.895Z,14.05
2022-08-30T05:37:43.818Z,14.20
2022-08-30T05:40:12.006Z,14.46
2022-08-30T05:42:41.721Z,14.33
2022-08-30T05:45:10.203Z,14.05
2022-08-30T05:47:37.962Z,14.44
2022-08-30T05:50:07.234Z,14.22
2022-08-30T05:52:38.543Z,14.42
2022-08-30T05:55:07.925Z,14.70
2022-08-30T05:57:36.490Z,14.51
2022-08-30T06:00:08.407Z,14.52
2022-08-30T06:02:35.240Z,14.46
2022-08-30T06:05:05.386Z,14.60
2022-08-30T06:07:33.231Z,14.66
2022-08-30T06:10:00.999Z,14.51
2022-08-30T06:15:09.255Z,14.66
2022-08-30T06:17:36.787Z,14.78
2022-08-30T06:20:05.155Z,13.74
2022-08-30T06:22:33.725Z,14.21
2022-08-30T06:25:00.665Z,14.38
2022-08-30T06:30:10.972Z,14.52
2022-08-30T06:32:39.709Z,14.71
2022-08-30T06:35:08.314Z,14.80
2022-08-30T06:37:35.758Z,14.61
2022-08-30T06:40:03.960Z,15.08
2022-08-30T06:42:33.548Z,15.15
2022-08-30T06:45:01.963Z,14.77
2022-08-30T06:47:30.443Z,14.79
2022-08-30T06:50:07.286Z,14.92
2022-08-30T06:52:39.995Z,15.43
2022-08-30T06:55:07.299Z,15.21
2022-08-30T06:57:34.181Z,15.34
2022-08-30T07:00:02.856Z,15.03
2022-08-30T07:02:29.761Z,15.33
2022-08-30T07:04:56.730Z,15.07
2022-08-30T07:07:24.586Z,15.30
2022-08-30T07:09:51.790Z,15.69
2022-08-30T07:12:18.734Z,15.80
2022-08-30T07:14:45.583Z,15.82
2022-08-30T07:17:34.562Z,15.72
2022-08-30T07:20:07.515Z,15.69
2022-08-30T07:22:34.812Z,15.47
2022-08-30T07:25:04.221Z,15.45
2022-08-30T07:27:32.914Z,15.30
2022-08-30T07:32:42.588Z,15.41
2022-08-30T07:35:10.215Z,15.45
2022-08-30T07:37:41.362Z,15.37
2022-08-30T07:40:17.851Z,15.56
2022-08-30T07:42:45.819Z,15.48
2022-08-30T07:45:15.091Z,15.26
2022-08-30T07:47:44.413Z,15.54
2022-08-30T07:50:13.213Z,15.47
2022-08-30T07:52:41.287Z,15.57
2022-08-30T07:57:50.169Z,15.18
2022-08-30T08:00:21.984Z,15.59
2022-08-30T08:10:53.116Z,15.56
2022-08-30T08:13:21.590Z,15.71
2022-08-30T08:18:30.289Z,15.76
2022-08-30T08:42:59.408Z,16.00
2022-08-30T09:24:12.477Z,16.91
2022-08-30T09:34:50.423Z,17.04
2022-08-30T09:37:53.106Z,17.15
2022-08-30T09:40:29.039Z,17.12
2022-08-30T10:05:43.891Z,17.03
2022-08-30T11:23:39.855Z,17.32
2022-08-30T11:29:41.716Z,17.31
2022-08-30T11:32:17.462Z,17.70
2022-08-30T11:34:47.290Z,17.65
2022-08-30T11:37:13.949Z,17.78
2022-08-30T11:39:53.912Z,17.60
2022-08-30T11:42:32.000Z,17.44
2022-08-30T11:45:25.026Z,17.52
2022-08-30T11:47:59.640Z,17.42
2022-08-30T11:50:54.628Z,17.77
2022-08-30T11:53:27.359Z,17.70
2022-08-30T11:56:08.858Z,17.45
2022-08-30T11:58:53.830Z,17.44
2022-08-30T12:01:50.305Z,17.63
2022-08-30T12:04:28.033Z,17.51
2022-08-30T12:07:00.839Z,17.48
2022-08-30T12:09:28.275Z,17.64
2022-08-30T12:12:00.125Z,17.58
2022-08-30T12:14:38.189Z,17.72
2022-08-30T12:18:04.912Z,17.61
2022-08-30T12:20:41.227Z,17.20
2022-08-30T12:23:20.615Z,17.42
2022-08-30T12:25:48.068Z,17.19
2022-08-30T12:28:24.281Z,17.57
2022-08-30T12:30:52.829Z,17.32
2022-08-30T12:33:41.268Z,17.06
2022-08-30T12:36:31.549Z,17.24
2022-08-30T12:39:13.763Z,17.45
2022-08-30T12:41:43.500Z,17.61
2022-08-30T12:44:16.031Z,17.27
2022-08-30T12:46:48.454Z,17.47
2022-08-30T12:49:20.732Z,17.30
2022-08-30T12:51:47.554Z,17.05
2022-08-30T12:54:21.675Z,17.18
2022-08-30T12:57:19.190Z,17.20
2022-08-30T13:00:01.728Z,17.37
2022-08-30T13:02:52.156Z,17.13
2022-08-30T13:05:44.543Z,16.95
2022-08-30T13:08:37.067Z,17.15
2022-08-30T13:11:10.912Z,16.92
2022-08-30T13:14:17.419Z,16.69
2022-08-30T13:16:46.641Z,16.80
2022-08-30T13:19:36.755Z,16.99
2022-08-30T13:22:04.830Z,16.99
2022-08-30T13:24:31.662Z,17.25
2022-08-30T13:27:12.100Z,17.08
2022-08-30T13:29:39.030Z,16.79
2022-08-30T13:32:05.872Z,16.89
2022-08-30T13:34:35.316Z,17.13
2022-08-30T13:37:03.349Z,17.36
2022-08-30T13:39:31.377Z,16.88
2022-08-30T13:42:31.592Z,17.41
2022-08-30T13:44:45.146Z,17.33
2022-08-30T13:50:04.438Z,17.59
2022-08-30T13:52:31.288Z,17.67
2022-08-30T13:54:58.710Z,17.73
2022-08-30T14:00:19.718Z,17.89
2022-08-30T14:02:54.282Z,17.78
2022-08-30T14:06:00.578Z,17.86
2022-08-30T14:08:48.642Z,17.51
2022-08-30T14:11:21.160Z,17.43
2022-08-30T14:16:38.453Z,17.40
2022-08-30T14:19:07.392Z,18.09
2022-08-30T14:21:35.525Z,17.63
2022-08-30T14:24:04.903Z,17.49
2022-08-30T14:26:48.565Z,17.25
2022-08-30T14:29:21.640Z,17.80
2022-08-30T14:31:48.931Z,17.83
2022-08-30T14:34:18.980Z,17.29
2022-08-30T14:36:47.095Z,17.66
2022-08-30T14:39:17.876Z,17.92
2022-08-30T14:41:50.159Z,17.73
2022-08-30T14:44:19.399Z,17.97
2022-08-30T14:46:46.709Z,17.84
2022-08-30T14:49:14.348Z,17.46
2022-08-30T14:51:41.679Z,17.75
2022-08-30T14:54:10.019Z,17.71
2022-08-30T14:56:37.559Z,17.43
2022-08-30T14:59:04.579Z,17.62
2022-08-30T15:01:31.976Z,17.54
2022-08-30T15:04:04.419Z,17.20
2022-08-30T15:06:35.075Z,17.37
2022-08-30T15:09:05.023Z,17.64
2022-08-30T15:11:33.251Z,17.59
2022-08-30T15:14:01.876Z,17.59
2022-08-30T15:16:32.360Z,17.55
2022-08-30T15:19:00.001Z,17.86
2022-08-30T15:21:30.760Z,17.66
2022-08-30T15:23:59.419Z,17.59
2022-08-30T15:26:28.024Z,17.28
2022-08-30T15:28:55.763Z,17.20
2022-08-30T15:31:28.463Z,17.61
2022-08-30T15:33:55.436Z,17.53
2022-08-30T15:36:24.488Z,17.31
2022-08-30T15:38:55.489Z,17.34
2022-08-30T15:41:23.435Z,17.49
2022-08-30T15:43:54.094Z,17.19
2022-08-30T15:46:29.518Z,17.67
2022-08-30T15:49:02.368Z,17.58
2022-08-30T15:51:41.481Z,17.42
2022-08-30T15:54:10.371Z,17.28
2022-08-30T15:56:39.284Z,17.85
2022-08-30T15:59:07.070Z,17.75
2022-08-30T16:01:39.810Z,17.45
2022-08-30T16:07:55.493Z,17.42
2022-08-30T16:10:31.883Z,17.26
2022-08-30T16:13:02.885Z,17.12
2022-08-30T16:15:30.376Z,17.23
2022-08-30T16:17:57.373Z,17.05
2022-08-30T16:20:25.281Z,17.11
2022-08-30T16:22:53.706Z,17.24
2022-08-30T16:25:20.520Z,16.92
2022-08-30T16:27:49.694Z,17.44
2022-08-30T16:30:16.747Z,17.17
2022-08-30T16:32:43.647Z,17.33
2022-08-30T16:35:27.341Z,17.18
2022-08-30T16:37:54.228Z,16.71
2022-08-30T16:40:21.005Z,16.66
2022-08-30T16:42:49.336Z,16.52
2022-08-30T16:45:16.243Z,16.84
2022-08-30T16:47:43.039Z,16.79
2022-08-30T16:50:12.183Z,16.84
2022-08-30T16:52:43.553Z,16.84
2022-08-30T16:55:11.234Z,16.84
2022-08-30T16:57:42.724Z,16.77
2022-08-30T17:00:13.235Z,16.70
2022-08-30T17:02:53.622Z,16.83
2022-08-30T17:05:23.910Z,16.83
2022-08-30T17:07:51.169Z,16.69
2022-08-30T17:10:20.933Z,16.37
2022-08-30T17:12:50.203Z,16.38
2022-08-30T17:15:17.369Z,16.54
2022-08-30T17:17:44.234Z,16.32
2022-08-30T17:20:11.223Z,16.40
2022-08-30T17:22:38.274Z,16.37
2022-08-30T17:25:05.372Z,16.61
2022-08-30T17:27:32.401Z,16.16
2022-08-30T17:29:59.247Z,16.33
2022-08-30T17:32:26.501Z,16.36
2022-08-30T17:34:54.200Z,16.46
2022-08-30T17:37:21.052Z,16.22
2022-08-30T17:39:48.240Z,16.05
2022-08-30T17:42:15.542Z,16.09
2022-08-30T17:44:44.070Z,16.18
2022-08-30T17:47:11.053Z,16.28
2022-08-30T17:49:38.803Z,16.08
2022-08-30T17:52:05.970Z,16.26
2022-08-30T17:54:41.030Z,16.41
2022-08-30T17:57:10.941Z,16.28
2022-08-30T17:59:38.714Z,16.24
2022-08-30T18:02:07.029Z,16.06
2022-08-30T18:04:38.423Z,16.19
2022-08-30T18:07:05.278Z,15.98
2022-08-30T18:09:34.023Z,16.25
2022-08-30T18:12:01.023Z,16.17
2022-08-30T18:14:28.230Z,15.97
2022-08-30T18:16:55.036Z,16.09
2022-08-30T18:19:27.012Z,16.08
2022-08-30T18:21:55.386Z,15.64
2022-08-30T18:24:22.931Z,15.63
2022-08-30T18:26:50.637Z,15.63
2022-08-30T18:29:29.082Z,15.72
2022-08-30T18:31:59.916Z,15.87
2022-08-30T18:34:28.075Z,15.83
2022-08-30T18:36:55.250Z,15.79
2022-08-30T18:39:22.424Z,15.86
2022-08-30T18:41:50.890Z,15.96
2022-08-30T18:44:29.135Z,16.01
2022-08-30T18:46:57.521Z,15.90
2022-08-30T18:49:25.875Z,15.68
2022-08-30T18:51:52.932Z,15.75
2022-08-30T18:54:20.175Z,15.92
2022-08-30T18:56:46.986Z,15.84
2022-08-30T18:59:14.106Z,15.88
2022-08-30T19:01:42.695Z,15.60
2022-08-30T19:04:11.466Z,15.70
2022-08-30T19:06:50.191Z,15.51
2022-08-30T19:09:17.198Z,15.32
2022-08-30T19:11:44.542Z,15.70
2022-08-30T19:17:26.606Z,15.35
2022-08-30T19:19:55.485Z,15.50
2022-08-30T19:22:24.516Z,15.18
2022-08-30T19:24:55.609Z,15.17
2022-08-30T19:27:38.017Z,15.17
2022-08-30T19:30:10.417Z,15.27
2022-08-30T19:32:38.070Z,15.07
2022-08-30T19:35:05.904Z,14.88
2022-08-30T19:37:34.381Z,15.09
2022-08-30T19:40:02.166Z,15.18
2022-08-30T19:42:29.188Z,14.87
2022-08-30T19:44:56.108Z,14.78
2022-08-30T19:47:23.031Z,15.05
2022-08-30T19:49:50.170Z,15.22
2022-08-30T19:52:18.774Z,14.89
2022-08-30T19:54:45.968Z,14.92
2022-08-30T19:57:13.089Z,14.76
2022-08-30T19:59:41.038Z,14.95
2022-08-30T20:02:08.691Z,14.90
2022-08-30T20:04:35.597Z,14.80
2022-08-30T20:07:02.590Z,14.92
2022-08-30T20:09:29.720Z,14.86
2022-08-30T20:14:38.547Z,14.84
2022-08-30T20:17:06.194Z,14.76
2022-08-30T20:19:39.539Z,14.95
2022-08-30T20:22:08.362Z,14.80
2022-08-30T20:24:37.157Z,14.54
2022-08-30T20:27:04.803Z,14.66
2022-08-30T20:29:32.488Z,14.66
2022-08-30T20:31:59.428Z,14.74
2022-08-30T20:34:27.776Z,14.84
2022-08-30T20:36:55.799Z,14.84
2022-08-30T20:39:23.584Z,14.87
2022-08-30T20:41:51.207Z,14.81
2022-08-30T20:44:19.087Z,14.68
2022-08-30T20:46:47.741Z,14.89
2022-08-30T20:49:14.722Z,14.91
2022-08-30T20:51:41.858Z,14.30
2022-08-30T20:54:09.470Z,14.75
2022-08-30T20:56:36.603Z,14.72
2022-08-30T20:59:04.691Z,14.66
2022-08-30T21:01:38.314Z,14.98
2022-08-30T21:04:06.269Z,14.83
2022-08-30T21:06:37.707Z,14.51
2022-08-30T21:09:06.588Z,14.85
2022-08-30T21:11:34.567Z,14.99
2022-08-30T21:14:02.163Z,14.66
2022-08-30T21:16:31.233Z,14.80
2022-08-30T21:18:58.133Z,14.60
2022-08-30T21:21:26.838Z,14.79
2022-08-30T21:23:57.357Z,14.88
2022-08-30T21:26:24.773Z,14.97
2022-08-30T21:28:54.629Z,15.06
2022-08-30T21:31:26.941Z,14.64
2022-08-30T21:33:55.014Z,15.03
2022-08-30T21:36:42.584Z,14.95
2022-08-30T21:39:09.910Z,14.48
2022-08-30T21:41:37.598Z,14.40
2022-08-30T21:44:11.163Z,14.78
2022-08-30T21:46:40.643Z,14.96
2022-08-30T21:49:10.587Z,14.73
2022-08-30T21:51:41.173Z,14.72
2022-08-30T21:54:09.836Z,14.71
2022-08-30T21:56:39.172Z,14.96
2022-08-30T21:59:07.335Z,14.84
2022-08-30T22:01:34.826Z,14.76
2022-08-30T22:04:06.028Z,14.83
2022-08-30T22:06:34.765Z,14.84
2022-08-30T22:09:04.132Z,14.61
2022-08-30T22:11:32.031Z,14.30
2022-08-30T22:13:59.531Z,14.63
2022-08-30T22:16:27.750Z,14.32
2022-08-30T22:18:54.592Z,14.49
2022-08-30T22:21:24.380Z,14.64
2022-08-30T22:23:52.376Z,14.61
2022-08-30T22:26:20.819Z,14.50
2022-08-30T22:28:47.984Z,14.58
2022-08-30T22:31:16.463Z,14.57
2022-08-30T22:33:44.699Z,14.78
2022-08-30T22:36:23.181Z,14.54
2022-08-30T22:39:00.864Z,14.76
2022-08-30T22:41:31.199Z,14.58
2022-08-30T22:43:58.108Z,14.77
2022-08-30T22:46:29.297Z,14.50
2022-08-30T22:49:03.551Z,15.05
2022-08-30T22:51:30.644Z,14.83
2022-08-30T22:53:58.003Z,15.06
2022-08-30T22:56:26.200Z,14.63
2022-08-30T22:58:53.956Z,14.34
2022-08-30T23:01:35.832Z,14.74
2022-08-30T23:04:03.959Z,14.91
2022-08-30T23:06:30.984Z,14.67
2022-08-30T23:08:58.043Z,14.89
2022-08-30T23:11:26.068Z,14.56
2022-08-30T23:13:53.646Z,14.81
2022-08-30T23:16:21.350Z,14.80
2022-08-30T23:18:48.872Z,14.88
2022-08-30T23:21:24.182Z,14.80
2022-08-30T23:24:11.493Z,14.85
2022-08-30T23:26:57.672Z,15.12
2022-08-30T23:29:43.250Z,14.77
2022-08-30T23:32:28.583Z,14.71
2022-08-30T23:35:13.791Z,14.97
2022-08-30T23:37:59.086Z,14.63
2022-08-30T23:40:44.918Z,14.70
2022-08-30T23:43:30.507Z,14.59
2022-08-30T23:46:19.229Z,14.74
2022-08-30T23:49:05.623Z,14.26
2022-08-30T23:51:50.970Z,14.55
2022-08-30T23:54:36.367Z,14.72
2022-08-30T23:57:23.385Z,14.54
